sensor_id;sensor_type;location;lat;lon;timestamp;pressure;altitude;pressure_sealevel;temperature;humidity
68301;BME280;55146;47.468;18.806;2023-04-09T00:01:55;100720.12;;;5.13;89.94
68301;BME280;55146;47.468;18.806;2023-04-09T00:04:20;100718.03;;;5.15;89.80
68301;BME280;55146;47.468;18.806;2023-04-09T00:06:48;100717.81;;;5.17;89.62
68301;BME280;55146;47.468;18.806;2023-04-09T00:09:14;100716.75;;;5.18;89.43
68301;BME280;55146;47.468;18.806;2023-04-09T00:11:40;100718.41;;;5.19;89.23
68301;BME280;55146;47.468;18.806;2023-04-09T00:14:05;100723.47;;;5.15;89.07
68301;BME280;55146;47.468;18.806;2023-04-09T00:16:31;100720.53;;;5.17;89.11
68301;BME280;55146;47.468;18.806;2023-04-09T00:18:56;100719.75;;;5.10;89.52
68301;BME280;55146;47.468;18.806;2023-04-09T00:21:21;100716.81;;;5.11;89.59
68301;BME280;55146;47.468;18.806;2023-04-09T00:23:47;100709.47;;;5.12;89.71
68301;BME280;55146;47.468;18.806;2023-04-09T00:26:12;100709.28;;;5.07;90.07
68301;BME280;55146;47.468;18.806;2023-04-09T00:28:38;100708.44;;;5.06;90.17
68301;BME280;55146;47.468;18.806;2023-04-09T00:31:03;100714.53;;;5.08;89.84
68301;BME280;55146;47.468;18.806;2023-04-09T00:33:28;100705.97;;;5.05;89.56
68301;BME280;55146;47.468;18.806;2023-04-09T00:35:54;100710.56;;;5.04;89.43
68301;BME280;55146;47.468;18.806;2023-04-09T00:38:20;100718.97;;;5.03;89.04
68301;BME280;55146;47.468;18.806;2023-04-09T00:40:49;100707.22;;;5.02;89.17
68301;BME280;55146;47.468;18.806;2023-04-09T00:43:16;100713.97;;;5.00;89.12
68301;BME280;55146;47.468;18.806;2023-04-09T00:45:42;100716.91;;;4.98;89.17
68301;BME280;55146;47.468;18.806;2023-04-09T00:48:07;100712.06;;;5.00;89.25
68301;BME280;55146;47.468;18.806;2023-04-09T00:50:32;100708.28;;;5.01;89.51
68301;BME280;55146;47.468;18.806;2023-04-09T00:52:58;100714.34;;;5.03;89.84
68301;BME280;55146;47.468;18.806;2023-04-09T00:55:24;100704.13;;;4.99;90.46
68301;BME280;55146;47.468;18.806;2023-04-09T00:57:49;100707.22;;;5.02;90.68
68301;BME280;55146;47.468;18.806;2023-04-09T01:00:14;100711.84;;;5.02;90.78
68301;BME280;55146;47.468;18.806;2023-04-09T01:02:40;100709.97;;;5.02;90.81
68301;BME280;55146;47.468;18.806;2023-04-09T01:05:06;100710.78;;;5.03;90.57
68301;BME280;55146;47.468;18.806;2023-04-09T01:07:46;100707.00;;;5.04;90.62
68301;BME280;55146;47.468;18.806;2023-04-09T01:13:15;100710.38;;;5.06;90.46
68301;BME280;55146;47.468;18.806;2023-04-09T01:16:04;100705.97;;;5.05;90.67
68301;BME280;55146;47.468;18.806;2023-04-09T01:18:34;100698.84;;;5.04;90.47
68301;BME280;55146;47.468;18.806;2023-04-09T01:21:06;100702.63;;;5.03;90.40
68301;BME280;55146;47.468;18.806;2023-04-09T01:24:05;100696.31;;;5.02;90.49
68301;BME280;55146;47.468;18.806;2023-04-09T01:27:06;100703.44;;;5.03;90.31
68301;BME280;55146;47.468;18.806;2023-04-09T01:29:34;100705.34;;;5.03;90.01
68301;BME280;55146;47.468;18.806;2023-04-09T01:32:03;100698.84;;;5.04;89.76
68301;BME280;55146;47.468;18.806;2023-04-09T01:34:30;100703.50;;;4.97;89.91
68301;BME280;55146;47.468;18.806;2023-04-09T01:36:58;100703.12;;;4.93;89.89
68301;BME280;55146;47.468;18.806;2023-04-09T01:39:25;100701.25;;;4.94;90.01
68301;BME280;55146;47.468;18.806;2023-04-09T01:41:51;100710.22;;;4.94;90.12
68301;BME280;55146;47.468;18.806;2023-04-09T01:44:18;100714.63;;;4.95;90.14
68301;BME280;55146;47.468;18.806;2023-04-09T01:46:46;100713.78;;;4.95;90.00
68301;BME280;55146;47.468;18.806;2023-04-09T01:49:12;100712.34;;;4.92;89.75
68301;BME280;55146;47.468;18.806;2023-04-09T01:51:39;100709.84;;;4.91;89.86
68301;BME280;55146;47.468;18.806;2023-04-09T01:54:04;100705.22;;;4.91;90.09
68301;BME280;55146;47.468;18.806;2023-04-09T01:56:43;100702.28;;;4.93;90.04
68301;BME280;55146;47.468;18.806;2023-04-09T01:59:09;100712.94;;;4.94;90.01
68301;BME280;55146;47.468;18.806;2023-04-09T02:01:39;100710.47;;;4.93;90.33
68301;BME280;55146;47.468;18.806;2023-04-09T02:04:10;100711.91;;;4.95;90.38
68301;BME280;55146;47.468;18.806;2023-04-09T02:06:47;100712.94;;;4.94;90.50
68301;BME280;55146;47.468;18.806;2023-04-09T02:09:17;100717.81;;;4.92;90.61
68301;BME280;55146;47.468;18.806;2023-04-09T02:11:45;100706.91;;;4.92;90.74
68301;BME280;55146;47.468;18.806;2023-04-09T02:14:12;100704.63;;;4.89;90.81
68301;BME280;55146;47.468;18.806;2023-04-09T02:16:38;100705.44;;;4.89;90.91
68301;BME280;55146;47.468;18.806;2023-04-09T02:19:04;100697.91;;;4.92;91.22
68301;BME280;55146;47.468;18.806;2023-04-09T02:21:31;100700.16;;;4.95;91.27
68301;BME280;55146;47.468;18.806;2023-04-09T02:23:56;100698.28;;;4.95;91.06
68301;BME280;55146;47.468;18.806;2023-04-09T02:26:22;100704.19;;;4.92;90.98
68301;BME280;55146;47.468;18.806;2023-04-09T02:28:48;100694.53;;;4.89;90.93
68301;BME280;55146;47.468;18.806;2023-04-09T02:31:13;100703.78;;;4.88;90.81
68301;BME280;55146;47.468;18.806;2023-04-09T02:33:38;100698.78;;;4.85;90.87
68301;BME280;55146;47.468;18.806;2023-04-09T02:36:05;100694.37;;;4.84;90.93
68301;BME280;55146;47.468;18.806;2023-04-09T02:38:30;100693.53;;;4.84;90.93
68301;BME280;55146;47.468;18.806;2023-04-09T02:40:56;100693.34;;;4.85;90.77
68301;BME280;55146;47.468;18.806;2023-04-09T02:43:21;100699.41;;;4.87;90.54
68301;BME280;55146;47.468;18.806;2023-04-09T02:45:46;100692.03;;;4.88;90.54
68301;BME280;55146;47.468;18.806;2023-04-09T02:48:12;100697.72;;;4.86;90.43
68301;BME280;55146;47.468;18.806;2023-04-09T02:50:37;100688.09;;;4.84;90.30
68301;BME280;55146;47.468;18.806;2023-04-09T02:53:02;100692.72;;;4.83;90.39
68301;BME280;55146;47.468;18.806;2023-04-09T02:55:28;100693.16;;;4.80;90.31
68301;BME280;55146;47.468;18.806;2023-04-09T02:57:53;100693.59;;;4.77;90.17
68301;BME280;55146;47.468;18.806;2023-04-09T03:00:18;100691.94;;;4.76;89.93
68301;BME280;55146;47.468;18.806;2023-04-09T03:02:44;100693.22;;;4.74;90.02
68301;BME280;55146;47.468;18.806;2023-04-09T03:05:09;100695.94;;;4.74;90.01
68301;BME280;55146;47.468;18.806;2023-04-09T03:07:35;100694.91;;;4.75;89.94
68301;BME280;55146;47.468;18.806;2023-04-09T03:10:00;100693.81;;;4.76;89.68
68301;BME280;55146;47.468;18.806;2023-04-09T03:12:26;100689.44;;;4.75;89.65
68301;BME280;55146;47.468;18.806;2023-04-09T03:14:51;100685.88;;;4.74;89.64
68301;BME280;55146;47.468;18.806;2023-04-09T03:17:16;100692.81;;;4.70;89.66
68301;BME280;55146;47.468;18.806;2023-04-09T03:19:42;100683.22;;;4.68;89.73
68301;BME280;55146;47.468;18.806;2023-04-09T03:22:07;100687.19;;;4.65;89.57
68301;BME280;55146;47.468;18.806;2023-04-09T03:24:32;100689.53;;;4.62;89.34
68301;BME280;55146;47.468;18.806;2023-04-09T03:26:58;100694.56;;;4.58;89.16
68301;BME280;55146;47.468;18.806;2023-04-09T03:29:23;100685.19;;;4.54;88.98
68301;BME280;55146;47.468;18.806;2023-04-09T03:31:49;100687.75;;;4.49;88.95
68301;BME280;55146;47.468;18.806;2023-04-09T03:34:14;100693.63;;;4.46;88.92
68301;BME280;55146;47.468;18.806;2023-04-09T03:36:40;100695.34;;;4.40;88.56
68301;BME280;55146;47.468;18.806;2023-04-09T03:39:05;100695.16;;;4.35;88.44
68301;BME280;55146;47.468;18.806;2023-04-09T03:41:31;100690.81;;;4.28;88.27
68301;BME280;55146;47.468;18.806;2023-04-09T03:43:56;100692.94;;;4.26;88.07
68301;BME280;55146;47.468;18.806;2023-04-09T03:46:22;100691.03;;;4.20;88.02
68301;BME280;55146;47.468;18.806;2023-04-09T03:48:47;100694.44;;;4.15;87.92
68301;BME280;55146;47.468;18.806;2023-04-09T03:51:14;100692.38;;;4.11;87.50
68301;BME280;55146;47.468;18.806;2023-04-09T03:53:40;100695.75;;;4.06;87.60
68301;BME280;55146;47.468;18.806;2023-04-09T03:56:06;100690.34;;;3.99;87.70
68301;BME280;55146;47.468;18.806;2023-04-09T03:58:32;100694.97;;;3.92;87.65
68301;BME280;55146;47.468;18.806;2023-04-09T04:00:57;100697.31;;;3.89;87.71
68301;BME280;55146;47.468;18.806;2023-04-09T04:03:22;100695.22;;;3.84;87.55
68301;BME280;55146;47.468;18.806;2023-04-09T04:05:48;100706.09;;;3.84;87.47
68301;BME280;55146;47.468;18.806;2023-04-09T04:08:13;100714.47;;;3.83;87.50
68301;BME280;55146;47.468;18.806;2023-04-09T04:10:38;100711.97;;;3.81;87.96
68301;BME280;55146;47.468;18.806;2023-04-09T04:13:05;100704.66;;;3.82;88.09
68301;BME280;55146;47.468;18.806;2023-04-09T04:15:31;100709.66;;;3.85;88.00
68301;BME280;55146;47.468;18.806;2023-04-09T04:17:56;100709.25;;;3.88;87.87
68301;BME280;55146;47.468;18.806;2023-04-09T04:20:21;100714.22;;;3.91;87.92
68301;BME280;55146;47.468;18.806;2023-04-09T04:22:47;100710.47;;;3.92;88.07
68301;BME280;55146;47.468;18.806;2023-04-09T04:25:12;100713.81;;;3.94;88.05
68301;BME280;55146;47.468;18.806;2023-04-09T04:27:40;100710.47;;;3.92;88.45
68301;BME280;55146;47.468;18.806;2023-04-09T04:30:06;100718.81;;;3.97;88.95
68301;BME280;55146;47.468;18.806;2023-04-09T04:32:32;100719.22;;;4.00;89.63
68301;BME280;55146;47.468;18.806;2023-04-09T04:34:57;100713.34;;;4.03;89.67
68301;BME280;55146;47.468;18.806;2023-04-09T04:37:23;100722.97;;;4.06;89.76
68301;BME280;55146;47.468;18.806;2023-04-09T04:39:48;100717.91;;;4.10;89.91
68301;BME280;55146;47.468;18.806;2023-04-09T04:42:13;100723.53;;;4.15;90.16
68301;BME280;55146;47.468;18.806;2023-04-09T04:44:39;100719.78;;;4.16;90.29
68301;BME280;55146;47.468;18.806;2023-04-09T04:47:04;100724.78;;;4.19;90.48
68301;BME280;55146;47.468;18.806;2023-04-09T04:49:29;100729.16;;;4.20;90.65
68301;BME280;55146;47.468;18.806;2023-04-09T04:51:55;100725.63;;;4.19;90.72
68301;BME280;55146;47.468;18.806;2023-04-09T04:54:21;100730.84;;;4.21;90.71
68301;BME280;55146;47.468;18.806;2023-04-09T04:56:46;100727.50;;;4.25;90.89
68301;BME280;55146;47.468;18.806;2023-04-09T04:59:11;100729.75;;;4.28;90.99
68301;BME280;55146;47.468;18.806;2023-04-09T05:01:37;100731.22;;;4.31;90.68
68301;BME280;55146;47.468;18.806;2023-04-09T05:04:02;100736.03;;;4.29;90.52
68301;BME280;55146;47.468;18.806;2023-04-09T05:06:28;100739.59;;;4.29;90.54
68301;BME280;55146;47.468;18.806;2023-04-09T05:08:54;100738.34;;;4.32;90.70
68301;BME280;55146;47.468;18.806;2023-04-09T05:11:26;100745.44;;;4.33;90.80
68301;BME280;55146;47.468;18.806;2023-04-09T05:13:51;100744.19;;;4.35;90.64
68301;BME280;55146;47.468;18.806;2023-04-09T05:16:17;100742.94;;;4.38;90.62
68301;BME280;55146;47.468;18.806;2023-04-09T05:18:43;100750.62;;;4.41;90.76
68301;BME280;55146;47.468;18.806;2023-04-09T05:21:09;100744.78;;;4.44;90.75
68301;BME280;55146;47.468;18.806;2023-04-09T05:23:34;100743.47;;;4.46;90.57
68301;BME280;55146;47.468;18.806;2023-04-09T05:25:59;100734.88;;;4.50;90.45
68301;BME280;55146;47.468;18.806;2023-04-09T05:28:25;100746.78;;;4.55;90.59
68301;BME280;55146;47.468;18.806;2023-04-09T05:30:50;100742.78;;;4.58;90.66
68301;BME280;55146;47.468;18.806;2023-04-09T05:33:15;100746.13;;;4.60;90.63
68301;BME280;55146;47.468;18.806;2023-04-09T05:35:41;100748.66;;;4.61;90.72
68301;BME280;55146;47.468;18.806;2023-04-09T05:38:06;100750.91;;;4.64;90.86
68301;BME280;55146;47.468;18.806;2023-04-09T05:40:31;100757.00;;;4.66;90.86
68301;BME280;55146;47.468;18.806;2023-04-09T05:42:57;100753.59;;;4.71;90.76
68301;BME280;55146;47.468;18.806;2023-04-09T05:45:22;100751.50;;;4.73;90.72
68301;BME280;55146;47.468;18.806;2023-04-09T05:47:48;100756.50;;;4.76;90.62
68301;BME280;55146;47.468;18.806;2023-04-09T05:50:13;100755.59;;;4.82;90.64
68301;BME280;55146;47.468;18.806;2023-04-09T05:52:38;100751.19;;;4.87;90.85
68301;BME280;55146;47.468;18.806;2023-04-09T05:55:04;100759.97;;;4.89;91.29
68301;BME280;55146;47.468;18.806;2023-04-09T05:57:31;100755.75;;;4.94;91.61
68301;BME280;55146;47.468;18.806;2023-04-09T05:59:56;100761.59;;;4.97;91.65
68301;BME280;55146;47.468;18.806;2023-04-09T06:02:22;100765.16;;;4.98;91.62
68301;BME280;55146;47.468;18.806;2023-04-09T06:04:49;100764.09;;;4.99;91.19
68301;BME280;55146;47.468;18.806;2023-04-09T06:07:14;100762.63;;;4.96;90.80
68301;BME280;55146;47.468;18.806;2023-04-09T06:09:40;100768.87;;;5.03;90.65
68301;BME280;55146;47.468;18.806;2023-04-09T06:12:08;100769.66;;;5.10;90.75
68301;BME280;55146;47.468;18.806;2023-04-09T06:14:34;100765.44;;;5.14;90.83
68301;BME280;55146;47.468;18.806;2023-04-09T06:16:59;100763.94;;;5.18;91.85
68301;BME280;55146;47.468;18.806;2023-04-09T06:19:24;100767.28;;;5.20;92.46
68301;BME280;55146;47.468;18.806;2023-04-09T06:21:50;100768.25;;;5.26;91.96
68301;BME280;55146;47.468;18.806;2023-04-09T06:24:15;100776.59;;;5.31;91.34
68301;BME280;55146;47.468;18.806;2023-04-09T06:26:41;100774.91;;;5.37;91.15
68301;BME280;55146;47.468;18.806;2023-04-09T06:29:06;100771.94;;;5.38;91.65
68301;BME280;55146;47.468;18.806;2023-04-09T06:31:32;100772.34;;;5.42;91.61
68301;BME280;55146;47.468;18.806;2023-04-09T06:33:57;100776.28;;;5.46;91.33
68301;BME280;55146;47.468;18.806;2023-04-09T06:36:23;100775.16;;;5.53;91.32
68301;BME280;55146;47.468;18.806;2023-04-09T06:38:48;100777.44;;;5.56;90.71
68301;BME280;55146;47.468;18.806;2023-04-09T06:41:13;100767.75;;;5.60;90.94
68301;BME280;55146;47.468;18.806;2023-04-09T06:43:39;100772.16;;;5.61;91.69
68301;BME280;55146;47.468;18.806;2023-04-09T06:46:05;100773.38;;;5.65;92.21
68301;BME280;55146;47.468;18.806;2023-04-09T06:48:30;100775.03;;;5.66;92.46
68301;BME280;55146;47.468;18.806;2023-04-09T06:50:55;100773.16;;;5.67;92.75
68301;BME280;55146;47.468;18.806;2023-04-09T06:53:21;100771.41;;;5.73;93.01
68301;BME280;55146;47.468;18.806;2023-04-09T06:55:46;100773.28;;;5.72;92.71
68301;BME280;55146;47.468;18.806;2023-04-09T06:58:11;100779.59;;;5.73;93.13
68301;BME280;55146;47.468;18.806;2023-04-09T07:00:37;100774.06;;;5.79;93.30
68301;BME280;55146;47.468;18.806;2023-04-09T07:03:02;100784.50;;;5.82;93.44
68301;BME280;55146;47.468;18.806;2023-04-09T07:05:28;100778.19;;;5.88;93.65
68301;BME280;55146;47.468;18.806;2023-04-09T07:07:54;100785.47;;;5.94;93.69
68301;BME280;55146;47.468;18.806;2023-04-09T07:10:20;100792.75;;;6.00;93.02
68301;BME280;55146;47.468;18.806;2023-04-09T07:12:45;100793.28;;;6.09;92.77
68301;BME280;55146;47.468;18.806;2023-04-09T07:15:10;100792.75;;;6.19;92.76
68301;BME280;55146;47.468;18.806;2023-04-09T07:17:36;100789.94;;;6.25;92.89
68301;BME280;55146;47.468;18.806;2023-04-09T07:20:01;100794.25;;;6.33;93.23
68301;BME280;55146;47.468;18.806;2023-04-09T07:22:28;100795.00;;;6.40;93.80
68301;BME280;55146;47.468;18.806;2023-04-09T07:24:53;100792.78;;;6.48;93.60
68301;BME280;55146;47.468;18.806;2023-04-09T07:27:23;100793.53;;;6.56;92.67
68301;BME280;55146;47.468;18.806;2023-04-09T07:29:49;100798.41;;;6.54;90.72
68301;BME280;55146;47.468;18.806;2023-04-09T07:32:14;100801.16;;;6.54;90.77
68301;BME280;55146;47.468;18.806;2023-04-09T07:34:41;100801.97;;;6.54;90.59
68301;BME280;55146;47.468;18.806;2023-04-09T07:37:06;100804.25;;;6.57;90.51
68301;BME280;55146;47.468;18.806;2023-04-09T07:39:32;100800.59;;;6.63;90.35
68301;BME280;55146;47.468;18.806;2023-04-09T07:42:01;100798.59;;;6.70;89.89
68301;BME280;55146;47.468;18.806;2023-04-09T07:44:26;100799.22;;;6.72;89.71
68301;BME280;55146;47.468;18.806;2023-04-09T07:46:52;100802.06;;;6.77;88.56
68301;BME280;55146;47.468;18.806;2023-04-09T07:49:17;100796.59;;;6.77;88.05
68301;BME280;55146;47.468;18.806;2023-04-09T07:51:42;100793.28;;;6.87;87.90
68301;BME280;55146;47.468;18.806;2023-04-09T07:54:08;100795.81;;;6.88;87.70
68301;BME280;55146;47.468;18.806;2023-04-09T07:56:33;100803.06;;;6.95;87.26
68301;BME280;55146;47.468;18.806;2023-04-09T07:58:59;100803.81;;;7.02;84.57
68301;BME280;55146;47.468;18.806;2023-04-09T08:01:24;100799.75;;;7.04;84.65
68301;BME280;55146;47.468;18.806;2023-04-09T08:03:50;100808.59;;;7.18;84.87
68301;BME280;55146;47.468;18.806;2023-04-09T08:06:16;100809.69;;;7.28;83.12
68301;BME280;55146;47.468;18.806;2023-04-09T08:08:42;100813.63;;;7.32;83.26
68301;BME280;55146;47.468;18.806;2023-04-09T08:11:07;100810.69;;;7.34;82.87
68301;BME280;55146;47.468;18.806;2023-04-09T08:13:33;100805.78;;;7.36;83.06
68301;BME280;55146;47.468;18.806;2023-04-09T08:16:01;100805.78;;;7.36;81.23
68301;BME280;55146;47.468;18.806;2023-04-09T08:18:28;100808.31;;;7.49;81.84
68301;BME280;55146;47.468;18.806;2023-04-09T08:20:54;100807.47;;;7.60;81.16
68301;BME280;55146;47.468;18.806;2023-04-09T08:23:20;100799.75;;;7.69;80.36
68301;BME280;55146;47.468;18.806;2023-04-09T08:25:45;100805.22;;;7.81;81.66
68301;BME280;55146;47.468;18.806;2023-04-09T08:28:10;100809.97;;;7.97;81.69
68301;BME280;55146;47.468;18.806;2023-04-09T08:30:36;100809.84;;;8.03;78.64
68301;BME280;55146;47.468;18.806;2023-04-09T08:33:01;100816.03;;;8.10;78.57
68301;BME280;55146;47.468;18.806;2023-04-09T08:35:29;100814.47;;;8.26;78.12
68301;BME280;55146;47.468;18.806;2023-04-09T08:37:54;100820.28;;;8.41;77.68
68301;BME280;55146;47.468;18.806;2023-04-09T08:40:21;100824.91;;;8.52;78.96
68301;BME280;55146;47.468;18.806;2023-04-09T08:42:52;100813.50;;;8.72;78.52
68301;BME280;55146;47.468;18.806;2023-04-09T08:45:19;100821.59;;;8.79;75.71
68301;BME280;55146;47.468;18.806;2023-04-09T08:47:45;100816.84;;;8.74;75.77
68301;BME280;55146;47.468;18.806;2023-04-09T08:50:13;100815.12;;;8.85;77.03
68301;BME280;55146;47.468;18.806;2023-04-09T08:52:39;100825.72;;;8.93;75.44
68301;BME280;55146;47.468;18.806;2023-04-09T08:55:05;100829.69;;;8.85;74.87
68301;BME280;55146;47.468;18.806;2023-04-09T08:57:38;100835.66;;;8.82;73.83
68301;BME280;55146;47.468;18.806;2023-04-09T09:00:05;100831.19;;;8.65;73.88
68301;BME280;55146;47.468;18.806;2023-04-09T09:02:30;100837.66;;;8.47;75.75
68301;BME280;55146;47.468;18.806;2023-04-09T09:04:56;100837.66;;;8.47;75.11
68301;BME280;55146;47.468;18.806;2023-04-09T09:07:26;100851.00;;;8.55;75.05
68301;BME280;55146;47.468;18.806;2023-04-09T09:09:59;100848.88;;;8.57;74.83
68301;BME280;55146;47.468;18.806;2023-04-09T09:12:40;100855.84;;;8.65;73.21
68301;BME280;55146;47.468;18.806;2023-04-09T09:17:58;100849.22;;;8.49;73.16
68301;BME280;55146;47.468;18.806;2023-04-09T09:20:24;100847.09;;;8.51;72.75
68301;BME280;55146;47.468;18.806;2023-04-09T09:22:53;100848.72;;;8.52;73.03
68301;BME280;55146;47.468;18.806;2023-04-09T09:25:19;100845.62;;;8.60;73.54
68301;BME280;55146;47.468;18.806;2023-04-09T09:27:49;100848.41;;;8.77;74.19
68301;BME280;55146;47.468;18.806;2023-04-09T09:30:22;100836.38;;;8.78;73.62
68301;BME280;55146;47.468;18.806;2023-04-09T09:33:05;100843.06;;;8.82;72.68
68301;BME280;55146;47.468;18.806;2023-04-09T09:35:45;100836.22;;;8.84;71.83
68301;BME280;55146;47.468;18.806;2023-04-09T09:38:11;100837.22;;;8.78;71.58
68301;BME280;55146;47.468;18.806;2023-04-09T09:40:36;100838.66;;;8.81;72.05
68301;BME280;55146;47.468;18.806;2023-04-09T09:43:02;100834.84;;;8.82;71.24
68301;BME280;55146;47.468;18.806;2023-04-09T09:45:28;100830.28;;;8.87;74.92
68301;BME280;55146;47.468;18.806;2023-04-09T09:47:53;100839.34;;;8.88;72.65
68301;BME280;55146;47.468;18.806;2023-04-09T09:50:22;100829.38;;;8.99;72.04
68301;BME280;55146;47.468;18.806;2023-04-09T09:52:49;100833.50;;;9.13;72.14
68301;BME280;55146;47.468;18.806;2023-04-09T09:55:18;100824.13;;;9.25;71.95
68301;BME280;55146;47.468;18.806;2023-04-09T09:57:47;100832.97;;;9.44;72.78
68301;BME280;55146;47.468;18.806;2023-04-09T10:00:13;100823.53;;;9.57;73.28
68301;BME280;55146;47.468;18.806;2023-04-09T10:02:55;100835.69;;;9.61;72.61
68301;BME280;55146;47.468;18.806;2023-04-09T10:05:22;100834.63;;;9.62;70.66
68301;BME280;55146;47.468;18.806;2023-04-09T10:07:52;100839.28;;;9.61;71.49
68301;BME280;55146;47.468;18.806;2023-04-09T10:10:18;100830.34;;;9.71;70.97
68301;BME280;55146;47.468;18.806;2023-04-09T10:12:44;100826.94;;;9.81;70.32
68301;BME280;55146;47.468;18.806;2023-04-09T10:15:10;100828.84;;;9.97;70.39
68301;BME280;55146;47.468;18.806;2023-04-09T10:17:36;100830.00;;;10.18;68.39
68301;BME280;55146;47.468;18.806;2023-04-09T10:20:21;100822.06;;;10.21;67.37
68301;BME280;55146;47.468;18.806;2023-04-09T10:22:49;100827.47;;;10.16;68.52
68301;BME280;55146;47.468;18.806;2023-04-09T10:25:16;100820.41;;;10.20;67.74
68301;BME280;55146;47.468;18.806;2023-04-09T10:27:42;100820.47;;;10.25;67.56
68301;BME280;55146;47.468;18.806;2023-04-09T10:30:30;100823.56;;;10.29;68.44
68301;BME280;55146;47.468;18.806;2023-04-09T10:35:34;100820.09;;;10.38;68.34
68301;BME280;55146;47.468;18.806;2023-04-09T10:38:00;100826.41;;;10.39;66.39
68301;BME280;55146;47.468;18.806;2023-04-09T10:40:27;100816.50;;;10.38;65.61
68301;BME280;55146;47.468;18.806;2023-04-09T10:42:54;100815.59;;;10.32;65.34
68301;BME280;55146;47.468;18.806;2023-04-09T10:45:20;100813.88;;;10.26;65.91
68301;BME280;55146;47.468;18.806;2023-04-09T10:47:48;100819.56;;;10.20;67.59
68301;BME280;55146;47.468;18.806;2023-04-09T10:50:25;100820.91;;;10.17;66.34
68301;BME280;55146;47.468;18.806;2023-04-09T10:52:55;100822.12;;;10.26;63.92
68301;BME280;55146;47.468;18.806;2023-04-09T10:58:09;100819.72;;;10.13;62.75
68301;BME280;55146;47.468;18.806;2023-04-09T11:00:40;100817.78;;;10.13;66.05
68301;BME280;55146;47.468;18.806;2023-04-09T11:03:21;100812.81;;;10.10;64.38
68301;BME280;55146;47.468;18.806;2023-04-09T11:05:51;100825.44;;;9.90;63.70
68301;BME280;55146;47.468;18.806;2023-04-09T11:08:17;100818.44;;;9.82;63.92
68301;BME280;55146;47.468;18.806;2023-04-09T11:10:43;100818.59;;;9.75;66.32
68301;BME280;55146;47.468;18.806;2023-04-09T11:13:11;100817.88;;;9.80;66.37
68301;BME280;55146;47.468;18.806;2023-04-09T11:15:37;100824.94;;;9.76;65.23
68301;BME280;55146;47.468;18.806;2023-04-09T11:18:03;100823.84;;;9.77;65.10
68301;BME280;55146;47.468;18.806;2023-04-09T11:20:32;100815.69;;;9.82;65.36
68301;BME280;55146;47.468;18.806;2023-04-09T11:22:58;100812.09;;;9.82;65.55
68301;BME280;55146;47.468;18.806;2023-04-09T11:25:26;100818.19;;;9.84;64.79
68301;BME280;55146;47.468;18.806;2023-04-09T11:27:52;100815.78;;;9.87;65.75
68301;BME280;55146;47.468;18.806;2023-04-09T11:30:18;100818.00;;;9.90;66.08
68301;BME280;55146;47.468;18.806;2023-04-09T11:32:44;100812.84;;;9.94;65.29
68301;BME280;55146;47.468;18.806;2023-04-09T11:35:14;100819.94;;;9.90;64.48
68301;BME280;55146;47.468;18.806;2023-04-09T11:37:41;100819.34;;;9.88;66.42
68301;BME280;55146;47.468;18.806;2023-04-09T11:40:23;100810.19;;;9.99;66.59
68301;BME280;55146;47.468;18.806;2023-04-09T11:42:52;100807.88;;;10.12;64.52
68301;BME280;55146;47.468;18.806;2023-04-09T11:45:20;100813.91;;;10.09;64.66
68301;BME280;55146;47.468;18.806;2023-04-09T11:47:46;100813.37;;;10.29;65.66
68301;BME280;55146;47.468;18.806;2023-04-09T11:50:13;100803.66;;;10.43;63.08
68301;BME280;55146;47.468;18.806;2023-04-09T11:52:39;100809.09;;;10.60;63.53
68301;BME280;55146;47.468;18.806;2023-04-09T11:55:07;100804.03;;;10.74;63.46
68301;BME280;55146;47.468;18.806;2023-04-09T11:57:43;100802.72;;;10.81;62.88
68301;BME280;55146;47.468;18.806;2023-04-09T12:00:16;100809.22;;;10.97;62.10
68301;BME280;55146;47.468;18.806;2023-04-09T12:02:43;100811.09;;;11.18;62.46
68301;BME280;55146;47.468;18.806;2023-04-09T12:05:11;100803.41;;;11.52;59.83
68301;BME280;55146;47.468;18.806;2023-04-09T12:07:38;100810.50;;;11.75;60.53
68301;BME280;55146;47.468;18.806;2023-04-09T12:10:05;100801.12;;;11.76;59.11
68301;BME280;55146;47.468;18.806;2023-04-09T12:12:38;100800.97;;;11.93;57.82
68301;BME280;55146;47.468;18.806;2023-04-09T12:15:22;100805.03;;;11.85;58.47
68301;BME280;55146;47.468;18.806;2023-04-09T12:17:55;100799.66;;;12.00;59.24
68301;BME280;55146;47.468;18.806;2023-04-09T12:20:43;100800.13;;;11.92;58.48
68301;BME280;55146;47.468;18.806;2023-04-09T12:23:12;100797.94;;;11.89;59.13
68301;BME280;55146;47.468;18.806;2023-04-09T12:25:39;100795.63;;;11.76;58.26
68301;BME280;55146;47.468;18.806;2023-04-09T12:28:06;100793.78;;;11.92;59.52
68301;BME280;55146;47.468;18.806;2023-04-09T12:30:33;100795.56;;;12.08;58.44
68301;BME280;55146;47.468;18.806;2023-04-09T12:32:59;100791.78;;;12.24;60.40
68301;BME280;55146;47.468;18.806;2023-04-09T12:35:24;100788.63;;;12.00;55.77
68301;BME280;55146;47.468;18.806;2023-04-09T12:37:50;100788.47;;;11.80;58.13
68301;BME280;55146;47.468;18.806;2023-04-09T12:40:16;100790.28;;;11.64;57.94
68301;BME280;55146;47.468;18.806;2023-04-09T12:42:43;100793.78;;;11.55;56.77
68301;BME280;55146;47.468;18.806;2023-04-09T12:45:09;100789.06;;;11.50;57.24
68301;BME280;55146;47.468;18.806;2023-04-09T12:47:35;100779.47;;;11.58;58.57
68301;BME280;55146;47.468;18.806;2023-04-09T12:50:02;100795.53;;;11.66;57.70
68301;BME280;55146;47.468;18.806;2023-04-09T12:52:28;100783.06;;;11.58;56.62
68301;BME280;55146;47.468;18.806;2023-04-09T12:54:53;100787.13;;;11.51;56.82
68301;BME280;55146;47.468;18.806;2023-04-09T12:57:19;100787.34;;;11.44;59.13
68301;BME280;55146;47.468;18.806;2023-04-09T12:59:45;100780.94;;;11.33;56.83